• Join FlightAware (Why Join?)
  • Login
  • US Flag 
07:43AM EST


 

Airport Tracker/Info


-or-


 

Live Flight TrackerFlight Track Log ✈ UAL4693 ✈ 25-Jun-2013 ✈ KMLI - KORD

Flight Track Log - Related Links

Times and Time Zones

All times are in EDT time to prevent confusion due to time zone crossing. See the UAL4693 flight status page for this flight to view local times or setup timezone preferences in your user account.

Time Position Orientation Groundspeed Altitude Reporting Facility
EDT Latitude Longitude Course Direction KTS MPH feet Rate Location/Type
06:56AM 41.4397 -90.5997 90° East 179 206 3,600  Level Chicago Center
06:57AM 41.3914 -90.6292 205° Southwest 233 268 6,400 2,220 Climbing Chicago Center
06:58AM 41.3825 -90.5389 97° East 269 310 8,100 1,920 Climbing Chicago Center
06:59AM 41.3942 -90.4242 82° East 306 352 10,300 1,860 Climbing Chicago Center
07:00AM 41.4333 -90.0372 90° East  Level FlightAware Approximate
07:00AM 41.3964 -90.3031 89° East 322 371 12,000  Level Chicago Center
07:01AM 41.4334 -89.9286 90° East  Level FlightAware Approximate
07:01AM 41.4058 -90.1403 86° East 357 411 13,800  Level Chicago Center
07:02AM 41.4119 -89.9936 87° East 384 442 15,000 540 Climbing Chicago Center
07:03AM 41.4197 -89.8347 86° East 415 478 14,900 -60 Descending Chicago Center
07:04AM 41.4275 -89.6744 86° East 428 493 14,900 -360 Level Chicago Center
07:05AM 41.4356 -89.5183 86° East 424 488 14,200 -1,080 Descending Chicago Center
07:06AM 41.4508 -89.3681 82° East 412 474 12,800 -1,380 Descending Chicago Center
07:07AM 41.4647 -89.2253 83° East 393 452 11,500 -900 Descending Chicago Center
07:08AM 41.4778 -89.0789 83° East 390 449 11,000 -300 Descending Chicago Center
07:09AM 41.4911 -88.9386 83° East 386 444 11,000  Level Chicago Center
07:10AM 41.5033 -88.7950 83° East 390 449 11,000  Level Chicago Center
07:11AM 41.5322 -88.6547 75° East 397 457 11,000  Level Chicago Center
07:12AM 41.5842 -88.5264 62° Northeast 393 452 11,000 -240 Level Chicago Center
07:13AM 41.6417 -88.4072 57° Northeast 386 444 10,600 -720 Descending Chicago Center
07:14AM 41.6983 -88.3119 51° Northeast 341 392 9,600 -840 Descending Chicago Center
07:15AM 41.7486 -88.2267 52° Northeast 306 352 9,000 -360 Descending Chicago Center
07:16AM 41.7981 -88.1544 47° Northeast 281 323 8,900 -720 Descending Chicago Center
07:17AM 41.8675 -88.1436 North 255 293 7,600 -960 Descending Chicago Center
07:18AM 41.9486 -88.1350 North 248 285 7,000 -300 Descending Chicago Center
07:19AM 42.0139 -88.1272 North 240 276 7,000 -540 Level Chicago Center
07:20AM 42.0672 -88.1714 328° Northwest 231 266 6,000 -1,140 Descending Chicago Center
07:21AM 42.1161 -88.2183 325° Northwest 221 254 4,800 -1,020 Descending Chicago Center
07:22AM 42.1658 -88.1756 33° Northeast 239 275 4,000 -420 Descending Chicago Center
07:23AM 42.1450 -88.1078 112° Southeast 223 257 4,000 -600 Level Chicago Center
07:24AM 42.1000 -88.0667 146° Southeast 196 226 2,900 -1,320 Descending Chicago TRACON